createdAt,value
2019-02-05T00:01:16.627Z,19.77
2019-02-05T00:04:20.486Z,18.87
2019-02-05T00:07:24.042Z,17.53
2019-02-05T00:10:27.587Z,17.83
2019-02-05T00:13:31.180Z,17.37
2019-02-05T00:16:34.767Z,16.43
2019-02-05T00:19:38.335Z,17.07
2019-02-05T00:22:42.656Z,15.90
2019-02-05T00:25:46.226Z,14.90
2019-02-05T00:28:49.786Z,14.83
2019-02-05T00:31:53.881Z,14.97
2019-02-05T00:34:57.452Z,15.00
2019-02-05T00:38:01.269Z,13.97
2019-02-05T00:41:05.095Z,13.90
2019-02-05T00:44:08.899Z,13.70
2019-02-05T00:47:12.474Z,13.80
2019-02-05T00:50:16.916Z,13.43
2019-02-05T00:53:20.755Z,12.50
2019-02-05T00:56:24.650Z,12.20
2019-02-05T00:59:28.207Z,11.93
2019-02-05T01:02:31.776Z,12.40
2019-02-05T01:05:35.435Z,12.07
2019-02-05T01:08:39.383Z,12.10
2019-02-05T01:11:43.005Z,11.07
2019-02-05T01:14:46.569Z,10.70
2019-02-05T01:17:50.307Z,11.00
2019-02-05T01:20:53.854Z,10.90
2019-02-05T01:23:57.577Z,10.30
2019-02-05T01:27:01.135Z,9.63
2019-02-05T01:30:06.152Z,9.73
2019-02-05T01:33:10.041Z,9.40
2019-02-05T01:36:13.837Z,9.93
2019-02-05T01:39:17.395Z,9.07
2019-02-05T01:42:20.982Z,8.50
2019-02-05T01:45:25.110Z,8.90
2019-02-05T01:48:28.690Z,9.13
2019-02-05T01:51:32.234Z,8.97
2019-02-05T01:54:35.784Z,8.70
2019-02-05T01:57:39.361Z,8.37
2019-02-05T02:00:43.088Z,7.73
2019-02-05T02:03:46.656Z,7.97
2019-02-05T02:06:50.853Z,7.97
2019-02-05T02:09:54.411Z,7.13
2019-02-05T02:12:58.469Z,7.70
2019-02-05T02:16:02.012Z,7.00
2019-02-05T02:19:05.703Z,7.50
2019-02-05T02:22:09.247Z,7.50
2019-02-05T02:25:12.976Z,7.10
2019-02-05T02:28:16.613Z,6.53
2019-02-05T02:31:20.260Z,6.63
2019-02-05T02:34:23.842Z,6.77
2019-02-05T02:37:27.418Z,6.80
2019-02-05T02:40:31.050Z,6.30
2019-02-05T02:43:34.631Z,6.30
2019-02-05T02:46:38.269Z,6.00
2019-02-05T02:49:41.885Z,6.50
2019-02-05T02:52:45.611Z,6.50
2019-02-05T02:55:49.519Z,5.80
2019-02-05T02:58:53.089Z,6.03
2019-02-05T03:01:56.663Z,5.93
2019-02-05T03:05:00.380Z,5.73
2019-02-05T03:08:04.142Z,5.77
2019-02-05T03:11:08.146Z,5.50
2019-02-05T03:14:12.066Z,5.60
2019-02-05T03:17:15.648Z,5.50
2019-02-05T03:20:19.214Z,5.57
2019-02-05T03:23:22.787Z,4.70
2019-02-05T03:26:26.360Z,5.40
2019-02-05T03:29:30.030Z,4.97
2019-02-05T03:32:33.605Z,5.00
2019-02-05T03:35:37.179Z,4.40
2019-02-05T03:38:41.094Z,4.73
2019-02-05T03:41:44.674Z,4.77
2019-02-05T03:44:48.248Z,4.73
2019-02-05T03:47:52.690Z,4.80
2019-02-05T03:51:19.122Z,4.77
2019-02-05T03:54:49.844Z,4.20
2019-02-05T03:58:36.941Z,4.33
2019-02-05T04:02:05.698Z,4.70
2019-02-05T04:05:33.274Z,4.63
2019-02-05T04:09:10.491Z,4.60
2019-02-05T04:12:55.444Z,4.23
2019-02-05T04:16:32.118Z,4.17
2019-02-05T04:19:59.141Z,4.23
2019-02-05T04:23:43.330Z,3.97
2019-02-05T04:27:22.914Z,4.20
2019-02-05T04:30:54.123Z,3.70
2019-02-05T04:34:54.034Z,4.00
2019-02-05T04:38:42.094Z,4.10
2019-02-05T04:42:23.108Z,3.83
2019-02-05T04:46:09.342Z,3.73
2019-02-05T04:49:45.893Z,4.00
2019-02-05T04:53:27.782Z,3.67
2019-02-05T04:57:03.707Z,3.47
2019-02-05T05:00:31.777Z,3.33
2019-02-05T05:04:16.824Z,3.37
2019-02-05T05:07:45.353Z,3.60
2019-02-05T05:10:48.922Z,3.23
2019-02-05T05:13:52.509Z,3.43
2019-02-05T05:16:56.412Z,3.50
2019-02-05T05:20:00.053Z,3.37
2019-02-05T05:23:04.170Z,3.40
2019-02-05T05:26:08.284Z,21.47
2019-02-05T05:29:11.944Z,33.23
2019-02-05T05:32:16.130Z,30.87
2019-02-05T05:35:19.698Z,23.63
2019-02-05T05:38:23.788Z,18.33
2019-02-05T05:41:27.431Z,62.67
2019-02-05T05:44:31.032Z,26.10
2019-02-05T05:47:34.598Z,17.17
2019-02-05T05:50:38.163Z,15.00
2019-02-05T05:53:41.737Z,13.00
2019-02-05T05:56:45.345Z,19.50
2019-02-05T05:59:48.931Z,86.67
2019-02-05T06:02:52.506Z,83.20
2019-02-05T06:05:56.077Z,72.27
2019-02-05T06:08:59.663Z,69.03
2019-02-05T06:12:03.234Z,62.60
2019-02-05T06:15:08.136Z,56.47
2019-02-05T06:18:11.708Z,52.20
2019-02-05T06:21:15.287Z,49.70
2019-02-05T06:24:19.029Z,46.60
2019-02-05T06:27:22.909Z,44.83
2019-02-05T06:30:26.572Z,42.80
2019-02-05T06:33:30.149Z,40.60
2019-02-05T06:36:33.715Z,38.67
2019-02-05T06:39:37.572Z,37.37
2019-02-05T06:42:41.150Z,36.93
2019-02-05T06:45:44.740Z,36.10
2019-02-05T06:48:48.608Z,35.07
2019-02-05T06:51:52.254Z,34.47
2019-02-05T06:54:55.823Z,32.90
2019-02-05T06:57:59.390Z,31.50
2019-02-05T07:01:03.461Z,30.50
2019-02-05T07:04:07.236Z,30.03
2019-02-05T07:07:11.157Z,30.63
2019-02-05T07:10:16.998Z,28.83
2019-02-05T07:13:20.569Z,26.97
2019-02-05T07:16:24.161Z,26.67
2019-02-05T07:19:28.028Z,25.27
2019-02-05T07:22:31.594Z,26.10
2019-02-05T07:25:35.311Z,24.77
2019-02-05T07:28:39.017Z,23.73
2019-02-05T07:31:42.660Z,22.50
2019-02-05T07:34:46.593Z,22.80
2019-02-05T07:37:50.339Z,21.80
2019-02-05T07:40:54.293Z,22.03
2019-02-05T07:43:57.860Z,20.50
2019-02-05T07:47:01.443Z,20.03
2019-02-05T07:50:07.249Z,20.93
2019-02-05T07:53:11.265Z,20.20
2019-02-05T07:56:15.114Z,18.40
2019-02-05T07:59:18.710Z,18.93
2019-02-05T08:02:22.284Z,18.77
2019-02-05T08:05:30.373Z,17.87
2019-02-05T08:08:34.020Z,17.40
2019-02-05T08:11:37.604Z,16.93
2019-02-05T08:14:41.176Z,15.97
2019-02-05T08:17:44.792Z,15.67
2019-02-05T08:20:48.369Z,15.60
2019-02-05T08:23:51.936Z,15.63
2019-02-05T08:26:55.840Z,14.87
2019-02-05T08:29:59.404Z,14.73
2019-02-05T08:33:02.984Z,14.43
2019-02-05T08:36:06.663Z,14.37
2019-02-05T08:39:10.624Z,14.00
2019-02-05T08:42:14.201Z,12.70
2019-02-05T08:45:20.287Z,13.87
2019-02-05T08:48:23.968Z,12.73
2019-02-05T08:51:27.552Z,12.57
2019-02-05T08:54:31.130Z,12.30
2019-02-05T08:57:35.683Z,11.93
2019-02-05T09:00:39.653Z,11.43
2019-02-05T09:03:43.233Z,12.07
2019-02-05T09:06:47.104Z,11.40
2019-02-05T09:09:50.668Z,11.20
2019-02-05T09:12:54.248Z,11.10
2019-02-05T09:15:57.853Z,10.90
2019-02-05T09:19:01.729Z,10.30
2019-02-05T09:22:05.452Z,10.50
2019-02-05T09:25:10.043Z,10.83
2019-02-05T09:28:13.926Z,9.90
2019-02-05T09:31:17.490Z,9.80
2019-02-05T09:34:21.071Z,9.60
2019-02-05T09:37:24.643Z,9.27
2019-02-05T09:40:30.372Z,9.33
2019-02-05T09:43:34.234Z,8.63
2019-02-05T09:46:37.877Z,8.87
2019-02-05T09:49:41.622Z,8.73
2019-02-05T09:52:45.216Z,8.93
2019-02-05T09:55:48.925Z,8.20
2019-02-05T09:58:54.179Z,8.83
2019-02-05T10:01:58.003Z,8.10
2019-02-05T10:05:01.590Z,7.90
2019-02-05T10:08:05.470Z,7.53
2019-02-05T10:11:09.031Z,7.73
2019-02-05T10:14:12.601Z,7.77
2019-02-05T10:17:16.182Z,7.63
2019-02-05T10:20:20.358Z,7.50
2019-02-05T10:23:23.999Z,7.80
2019-02-05T10:26:27.903Z,7.20
2019-02-05T10:29:31.474Z,7.47
2019-02-05T10:32:35.040Z,6.70
2019-02-05T10:35:38.763Z,6.77
2019-02-05T10:38:42.416Z,7.30
2019-02-05T10:41:46.395Z,6.83
2019-02-05T10:44:50.331Z,6.83
2019-02-05T10:47:54.143Z,6.77
2019-02-05T10:50:58.256Z,6.70
2019-02-05T10:54:02.142Z,6.17
2019-02-05T10:57:05.719Z,6.37
2019-02-05T11:00:13.582Z,6.20
2019-02-05T11:03:17.210Z,6.47
2019-02-05T11:06:20.782Z,6.03
2019-02-05T11:09:24.338Z,6.10
2019-02-05T11:12:28.191Z,5.90
2019-02-05T11:15:32.590Z,5.87
2019-02-05T11:18:36.398Z,5.70
2019-02-05T11:21:39.962Z,5.93
2019-02-05T11:24:44.280Z,5.30
2019-02-05T11:27:48.118Z,5.00
2019-02-05T11:30:51.735Z,5.17
2019-02-05T11:33:55.300Z,5.67
2019-02-05T11:36:59.168Z,5.83
2019-02-05T11:40:02.727Z,5.73
2019-02-05T11:43:06.625Z,5.10
2019-02-05T11:46:10.198Z,4.93
2019-02-05T11:49:13.836Z,5.00
2019-02-05T11:52:17.962Z,4.90
2019-02-05T11:55:23.096Z,4.90
2019-02-05T11:58:26.954Z,5.07
2019-02-05T12:01:39.115Z,5.00
2019-02-05T12:04:38.429Z,4.77
2019-02-05T12:07:42.302Z,4.67
2019-02-05T12:10:45.858Z,4.70
2019-02-05T12:13:49.430Z,4.50
2019-02-05T12:16:53.007Z,4.27
2019-02-05T12:19:56.566Z,4.67
2019-02-05T12:23:00.210Z,4.60
2019-02-05T12:26:03.774Z,4.90
2019-02-05T12:29:07.418Z,4.40
2019-02-05T12:32:11.015Z,4.40
2019-02-05T12:35:15.413Z,4.27
2019-02-05T12:38:19.231Z,4.20
2019-02-05T12:41:22.790Z,3.97
2019-02-05T12:44:26.637Z,4.50
2019-02-05T12:47:30.191Z,4.30
2019-02-05T12:50:34.736Z,4.23
2019-02-05T12:53:38.588Z,4.53
2019-02-05T12:56:42.251Z,4.37
2019-02-05T12:59:45.820Z,3.90
2019-02-05T13:02:50.346Z,4.03
2019-02-05T13:05:56.150Z,4.30
2019-02-05T13:08:59.195Z,4.30
2019-02-05T13:12:03.107Z,4.10
2019-02-05T13:15:07.070Z,4.03
2019-02-05T13:18:10.734Z,3.80
2019-02-05T13:21:14.758Z,3.87
2019-02-05T13:24:18.321Z,3.53
2019-02-05T13:27:21.959Z,4.13
2019-02-05T13:30:27.752Z,3.70
2019-02-05T13:33:31.315Z,3.83
2019-02-05T13:36:34.879Z,3.33
2019-02-05T13:39:38.518Z,3.50
2019-02-05T13:42:42.393Z,3.57
2019-02-05T13:45:46.563Z,4.00
2019-02-05T13:48:50.170Z,3.80
2019-02-05T13:51:53.730Z,3.60
2019-02-05T13:54:57.369Z,3.77
2019-02-05T13:58:01.329Z,3.50
2019-02-05T14:01:06.139Z,3.67
2019-02-05T14:04:10.020Z,3.40
2019-02-05T14:07:13.888Z,3.30
2019-02-05T14:10:23.613Z,3.30
2019-02-05T14:13:27.517Z,3.50
2019-02-05T14:16:31.081Z,3.53
2019-02-05T14:19:34.648Z,3.30
2019-02-05T14:22:38.285Z,3.33
2019-02-05T14:25:41.857Z,3.17
2019-02-05T14:28:45.433Z,3.10
2019-02-05T14:31:49.270Z,3.33
2019-02-05T14:34:52.840Z,3.50
2019-02-05T14:37:56.469Z,3.03
2019-02-05T14:41:00.043Z,3.43
2019-02-05T14:44:03.659Z,3.70
2019-02-05T14:47:07.299Z,3.43
2019-02-05T14:50:14.736Z,3.60
2019-02-05T14:53:18.598Z,3.90
2019-02-05T14:56:22.168Z,3.30
2019-02-05T14:59:25.737Z,3.33
2019-02-05T15:02:29.294Z,3.30
2019-02-05T15:05:32.943Z,3.30
2019-02-05T15:08:36.822Z,3.20
2019-02-05T15:11:40.395Z,3.73
2019-02-05T15:14:43.960Z,3.10
2019-02-05T15:17:47.608Z,3.40
2019-02-05T15:20:51.863Z,2.83
2019-02-05T15:23:55.418Z,3.03
2019-02-05T15:26:58.987Z,3.23
2019-02-05T15:30:02.726Z,3.50
2019-02-05T15:33:19.112Z,3.00
2019-02-05T15:36:31.248Z,3.00
2019-02-05T15:39:33.365Z,3.07
2019-02-05T15:42:36.942Z,3.30
2019-02-05T15:45:40.639Z,3.10
2019-02-05T15:48:44.566Z,2.70
2019-02-05T15:51:48.474Z,2.97
2019-02-05T15:54:52.074Z,3.13
2019-02-05T15:57:55.938Z,3.20
2019-02-05T16:00:59.502Z,3.00
2019-02-05T16:04:03.387Z,3.20
2019-02-05T16:07:07.055Z,3.23
2019-02-05T16:10:13.059Z,3.27
2019-02-05T16:13:16.966Z,3.40
2019-02-05T16:16:20.543Z,3.43
2019-02-05T16:19:24.108Z,3.40
2019-02-05T16:22:27.675Z,3.90
2019-02-05T16:25:31.241Z,4.13
2019-02-05T16:28:34.819Z,12.57
2019-02-05T16:31:38.408Z,17.90
2019-02-05T16:34:41.976Z,30.03
2019-02-05T16:37:45.993Z,40.43
2019-02-05T16:40:49.907Z,50.30
2019-02-05T16:43:53.827Z,50.47
2019-02-05T16:46:57.905Z,50.40
2019-02-05T16:50:01.819Z,48.57
2019-02-05T16:53:07.401Z,47.50
2019-02-05T16:56:10.969Z,45.43
2019-02-05T16:59:14.833Z,43.83
2019-02-05T17:02:28.606Z,43.90
2019-02-05T17:05:26.117Z,42.93
2019-02-05T17:08:30.091Z,41.63
2019-02-05T17:11:33.657Z,41.40
2019-02-05T17:14:37.258Z,40.47
2019-02-05T17:17:40.946Z,38.80
2019-02-05T17:20:44.489Z,37.97
2019-02-05T17:23:48.063Z,38.27
2019-02-05T17:26:52.774Z,38.37
2019-02-05T17:29:56.355Z,36.93
2019-02-05T17:33:00.186Z,34.93
2019-02-05T17:36:03.896Z,34.97
2019-02-05T17:39:09.739Z,34.83
2019-02-05T17:42:13.476Z,34.23
2019-02-05T17:45:22.200Z,34.53
2019-02-05T17:48:26.037Z,33.07
2019-02-05T17:51:29.600Z,32.97
2019-02-05T17:54:33.180Z,32.47
2019-02-05T17:57:37.067Z,30.07
2019-02-05T18:00:48.240Z,38.13
2019-02-05T18:03:52.111Z,38.60
2019-02-05T18:06:55.823Z,39.70
2019-02-05T18:09:59.527Z,36.97
2019-02-05T18:13:03.087Z,33.63
2019-02-05T18:16:15.562Z,32.17
2019-02-05T18:19:19.395Z,31.13
2019-02-05T18:22:23.309Z,29.80
2019-02-05T18:25:27.238Z,29.10
2019-02-05T18:28:31.153Z,27.87
2019-02-05T18:31:34.761Z,28.27
2019-02-05T18:34:38.487Z,42.97
2019-02-05T18:37:42.130Z,40.80
2019-02-05T18:40:45.784Z,45.40
2019-02-05T18:43:49.429Z,42.87
2019-02-05T18:46:53.080Z,39.07
2019-02-05T18:49:56.988Z,35.27
2019-02-05T18:53:01.193Z,31.97
2019-02-05T18:56:05.776Z,30.53
2019-02-05T18:59:09.340Z,29.00
2019-02-05T19:02:12.988Z,27.30
2019-02-05T19:05:17.111Z,25.57
2019-02-05T19:08:20.869Z,25.43
2019-02-05T19:11:24.502Z,25.17
2019-02-05T19:14:28.090Z,25.10
2019-02-05T19:17:31.940Z,23.40
2019-02-05T19:20:35.805Z,22.53
2019-02-05T19:23:39.686Z,22.30
2019-02-05T19:26:50.002Z,22.10
2019-02-05T19:29:53.574Z,21.00
2019-02-05T19:32:57.233Z,20.83
2019-02-05T19:36:00.814Z,21.17
2019-02-05T19:39:07.085Z,20.33
2019-02-05T19:42:10.873Z,19.70
2019-02-05T19:45:34.018Z,19.80
2019-02-05T19:48:42.643Z,19.10
2019-02-05T19:51:46.309Z,18.50
2019-02-05T19:54:50.643Z,19.47
2019-02-05T19:57:54.578Z,18.43
2019-02-05T20:00:58.500Z,17.40
2019-02-05T20:04:02.162Z,17.87
2019-02-05T20:07:06.212Z,16.47
2019-02-05T20:10:10.228Z,16.27
2019-02-05T20:13:13.937Z,16.67
2019-02-05T20:16:17.637Z,16.43
2019-02-05T20:19:24.634Z,15.50
2019-02-05T20:22:26.933Z,15.77
2019-02-05T20:25:30.781Z,15.73
2019-02-05T20:28:34.696Z,14.57
2019-02-05T20:31:38.607Z,14.80
2019-02-05T20:34:42.174Z,19.73
2019-02-05T20:37:45.843Z,28.00
2019-02-05T20:40:49.423Z,27.10
2019-02-05T20:43:52.988Z,24.33
2019-02-05T20:46:56.675Z,37.40
2019-02-05T20:50:00.596Z,47.03
2019-02-05T20:53:13.403Z,42.40
2019-02-05T20:56:09.404Z,37.77
2019-02-05T20:59:12.983Z,34.03
2019-02-05T21:02:16.941Z,32.40
2019-02-05T21:05:20.689Z,30.50
2019-02-05T21:08:24.277Z,28.30
2019-02-05T21:11:28.148Z,28.23
2019-02-05T21:14:31.724Z,26.53
2019-02-05T21:17:35.303Z,24.77
2019-02-05T21:20:38.883Z,24.37
2019-02-05T21:23:42.478Z,25.30
2019-02-05T21:26:46.345Z,40.83
2019-02-05T21:29:49.924Z,59.53
2019-02-05T21:32:53.880Z,57.67
2019-02-05T21:35:57.775Z,54.43
2019-02-05T21:39:01.361Z,50.63
2019-02-05T21:42:05.391Z,49.47
2019-02-05T21:45:11.320Z,49.33
2019-02-05T21:48:14.895Z,48.50
2019-02-05T21:51:18.649Z,46.83
2019-02-05T21:54:22.578Z,46.00
2019-02-05T21:57:26.144Z,45.83
2019-02-05T22:00:31.156Z,39.37
2019-02-05T22:03:35.126Z,38.30
2019-02-05T22:06:38.631Z,36.73
2019-02-05T22:09:42.213Z,35.60
2019-02-05T22:12:45.876Z,34.37
2019-02-05T22:15:49.439Z,35.10
2019-02-05T22:18:53.037Z,35.67
2019-02-05T22:21:56.894Z,34.10
2019-02-05T22:25:00.768Z,33.87
2019-02-05T22:28:05.041Z,32.77
2019-02-05T22:31:09.004Z,32.50
2019-02-05T22:34:12.588Z,32.53
2019-02-05T22:37:16.156Z,30.53
2019-02-05T22:40:21.461Z,31.17
2019-02-05T22:43:25.083Z,30.30
2019-02-05T22:46:28.751Z,30.57
2019-02-05T22:49:32.404Z,29.90
2019-02-05T22:52:35.968Z,30.03
2019-02-05T22:55:40.038Z,28.50
2019-02-05T22:58:43.610Z,29.00
2019-02-05T23:01:56.590Z,28.87
2019-02-05T23:05:23.790Z,27.87
2019-02-05T23:08:27.515Z,27.33
2019-02-05T23:12:08.532Z,27.20
2019-02-05T23:15:16.102Z,26.03
2019-02-05T23:18:20.060Z,26.03
2019-02-05T23:21:23.665Z,26.40
2019-02-05T23:24:27.512Z,26.73
2019-02-05T23:27:31.079Z,25.30
2019-02-05T23:30:34.805Z,25.13
2019-02-05T23:33:38.677Z,24.97
2019-02-05T23:36:42.616Z,24.53
2019-02-05T23:39:46.185Z,23.73
2019-02-05T23:42:49.813Z,23.77
2019-02-05T23:46:01.375Z,24.20
2019-02-05T23:48:59.104Z,23.57
2019-02-05T23:52:03.055Z,23.90
2019-02-05T23:55:08.377Z,23.00
2019-02-05T23:58:12.269Z,22.70
